sensor_id;sensor_type;location;lat;lon;timestamp;P1;durP1;ratioP1;P2;durP2;ratioP2
63690;SDS011;49837;57.280;27.070;2023-05-10T00:00:11;6.7;;;2.9;;
63690;SDS011;49837;57.280;27.070;2023-05-10T00:01:11;12.5;;;3.1;;
63690;SDS011;49837;57.280;27.070;2023-05-10T00:02:11;9.6;;;3.1;;
63690;SDS011;49837;57.280;27.070;2023-05-10T00:03:12;11.0;;;3.7;;
63690;SDS011;49837;57.280;27.070;2023-05-10T00:04:12;7.5;;;3.1;;
63690;SDS011;49837;57.280;27.070;2023-05-10T00:05:12;9.1;;;3.0;;
63690;SDS011;49837;57.280;27.070;2023-05-10T00:06:13;13.9;;;3.4;;
63690;SDS011;49837;57.280;27.070;2023-05-10T00:07:13;9.8;;;3.6;;
63690;SDS011;49837;57.280;27.070;2023-05-10T00:08:13;12.7;;;3.8;;
63690;SDS011;49837;57.280;27.070;2023-05-10T00:09:14;11.6;;;3.8;;
63690;SDS011;49837;57.280;27.070;2023-05-10T00:10:14;9.4;;;3.4;;
63690;SDS011;49837;57.280;27.070;2023-05-10T00:11:14;10.2;;;3.2;;
63690;SDS011;49837;57.280;27.070;2023-05-10T00:12:15;9.9;;;3.6;;
63690;SDS011;49837;57.280;27.070;2023-05-10T00:13:15;10.5;;;3.5;;
63690;SDS011;49837;57.280;27.070;2023-05-10T00:14:16;8.4;;;3.9;;
63690;SDS011;49837;57.280;27.070;2023-05-10T00:15:16;11.0;;;3.7;;
63690;SDS011;49837;57.280;27.070;2023-05-10T00:16:16;7.8;;;3.6;;
63690;SDS011;49837;57.280;27.070;2023-05-10T00:17:17;12.1;;;3.4;;
63690;SDS011;49837;57.280;27.070;2023-05-10T00:18:17;7.2;;;3.8;;
63690;SDS011;49837;57.280;27.070;2023-05-10T00:19:17;9.0;;;3.3;;
63690;SDS011;49837;57.280;27.070;2023-05-10T00:20:18;7.5;;;3.3;;
63690;SDS011;49837;57.280;27.070;2023-05-10T00:21:18;15.2;;;4.4;;
63690;SDS011;49837;57.280;27.070;2023-05-10T00:22:18;11.9;;;3.8;;
63690;SDS011;49837;57.280;27.070;2023-05-10T00:23:19;10.9;;;4.1;;
63690;SDS011;49837;57.280;27.070;2023-05-10T00:24:19;11.0;;;3.8;;
63690;SDS011;49837;57.280;27.070;2023-05-10T00:25:19;9.5;;;3.9;;
63690;SDS011;49837;57.280;27.070;2023-05-10T00:26:20;10.3;;;4.3;;
63690;SDS011;49837;57.280;27.070;2023-05-10T00:27:20;11.7;;;3.6;;
63690;SDS011;49837;57.280;27.070;2023-05-10T00:28:20;8.6;;;3.7;;
63690;SDS011;49837;57.280;27.070;2023-05-10T00:29:21;11.4;;;3.7;;
63690;SDS011;49837;57.280;27.070;2023-05-10T00:30:21;9.7;;;3.6;;
63690;SDS011;49837;57.280;27.070;2023-05-10T00:31:22;11.2;;;3.5;;
63690;SDS011;49837;57.280;27.070;2023-05-10T00:32:22;11.0;;;3.9;;
63690;SDS011;49837;57.280;27.070;2023-05-10T00:33:22;9.3;;;3.8;;
63690;SDS011;49837;57.280;27.070;2023-05-10T00:34:23;9.3;;;3.4;;
63690;SDS011;49837;57.280;27.070;2023-05-10T00:35:23;11.0;;;3.3;;
63690;SDS011;49837;57.280;27.070;2023-05-10T00:36:23;7.6;;;3.7;;
63690;SDS011;49837;57.280;27.070;2023-05-10T00:37:23;8.5;;;3.6;;
63690;SDS011;49837;57.280;27.070;2023-05-10T00:38:24;11.0;;;3.9;;
63690;SDS011;49837;57.280;27.070;2023-05-10T00:39:24;16.1;;;4.6;;
63690;SDS011;49837;57.280;27.070;2023-05-10T00:40:25;13.7;;;4.5;;
63690;SDS011;49837;57.280;27.070;2023-05-10T00:41:25;9.1;;;4.3;;
63690;SDS011;49837;57.280;27.070;2023-05-10T00:42:25;16.3;;;4.8;;
63690;SDS011;49837;57.280;27.070;2023-05-10T00:43:26;12.3;;;4.3;;
63690;SDS011;49837;57.280;27.070;2023-05-10T00:44:26;13.7;;;4.3;;
63690;SDS011;49837;57.280;27.070;2023-05-10T00:45:26;13.9;;;5.0;;
63690;SDS011;49837;57.280;27.070;2023-05-10T00:46:27;12.6;;;4.3;;
63690;SDS011;49837;57.280;27.070;2023-05-10T00:47:27;9.5;;;4.4;;
63690;SDS011;49837;57.280;27.070;2023-05-10T00:48:28;9.5;;;4.2;;
63690;SDS011;49837;57.280;27.070;2023-05-10T00:49:28;9.7;;;4.7;;
63690;SDS011;49837;57.280;27.070;2023-05-10T00:50:28;18.0;;;4.8;;
63690;SDS011;49837;57.280;27.070;2023-05-10T00:51:28;10.8;;;4.2;;
63690;SDS011;49837;57.280;27.070;2023-05-10T00:52:29;14.8;;;4.8;;
63690;SDS011;49837;57.280;27.070;2023-05-10T00:53:30;16.8;;;4.5;;
63690;SDS011;49837;57.280;27.070;2023-05-10T00:54:29;11.1;;;4.5;;
63690;SDS011;49837;57.280;27.070;2023-05-10T00:55:30;11.6;;;4.4;;
63690;SDS011;49837;57.280;27.070;2023-05-10T00:56:30;10.5;;;4.5;;
63690;SDS011;49837;57.280;27.070;2023-05-10T00:57:30;13.3;;;4.6;;
63690;SDS011;49837;57.280;27.070;2023-05-10T00:58:31;10.1;;;4.3;;
63690;SDS011;49837;57.280;27.070;2023-05-10T00:59:31;10.7;;;4.5;;
63690;SDS011;49837;57.280;27.070;2023-05-10T01:00:32;12.2;;;4.3;;
63690;SDS011;49837;57.280;27.070;2023-05-10T01:01:32;11.3;;;4.3;;
63690;SDS011;49837;57.280;27.070;2023-05-10T01:02:33;9.2;;;4.0;;
63690;SDS011;49837;57.280;27.070;2023-05-10T01:03:33;10.4;;;4.2;;
63690;SDS011;49837;57.280;27.070;2023-05-10T01:04:33;13.0;;;4.3;;
63690;SDS011;49837;57.280;27.070;2023-05-10T01:05:33;12.4;;;5.2;;
63690;SDS011;49837;57.280;27.070;2023-05-10T01:06:33;7.7;;;3.8;;
63690;SDS011;49837;57.280;27.070;2023-05-10T01:07:34;9.8;;;4.0;;
63690;SDS011;49837;57.280;27.070;2023-05-10T01:08:34;10.3;;;4.3;;
63690;SDS011;49837;57.280;27.070;2023-05-10T01:09:35;10.7;;;4.8;;
63690;SDS011;49837;57.280;27.070;2023-05-10T01:10:35;10.7;;;4.0;;
63690;SDS011;49837;57.280;27.070;2023-05-10T01:11:36;10.0;;;4.2;;
63690;SDS011;49837;57.280;27.070;2023-05-10T01:12:37;11.1;;;4.1;;
63690;SDS011;49837;57.280;27.070;2023-05-10T01:13:37;12.8;;;3.8;;
63690;SDS011;49837;57.280;27.070;2023-05-10T01:14:36;7.7;;;3.9;;
63690;SDS011;49837;57.280;27.070;2023-05-10T01:15:37;10.7;;;3.8;;
63690;SDS011;49837;57.280;27.070;2023-05-10T01:16:38;12.7;;;4.7;;
63690;SDS011;49837;57.280;27.070;2023-05-10T01:17:38;10.4;;;4.2;;
63690;SDS011;49837;57.280;27.070;2023-05-10T01:18:38;12.1;;;4.7;;
63690;SDS011;49837;57.280;27.070;2023-05-10T01:19:38;13.0;;;4.2;;
63690;SDS011;49837;57.280;27.070;2023-05-10T01:20:40;12.2;;;3.8;;
63690;SDS011;49837;57.280;27.070;2023-05-10T01:22:49;9.2;;;4.0;;
63690;SDS011;49837;57.280;27.070;2023-05-10T01:23:53;10.3;;;3.8;;
63690;SDS011;49837;57.280;27.070;2023-05-10T01:26:04;11.1;;;4.3;;
63690;SDS011;49837;57.280;27.070;2023-05-10T01:29:06;7.4;;;3.6;;
63690;SDS011;49837;57.280;27.070;2023-05-10T01:31:06;10.2;;;4.7;;
63690;SDS011;49837;57.280;27.070;2023-05-10T01:33:19;10.6;;;4.2;;
63690;SDS011;49837;57.280;27.070;2023-05-10T01:34:09;10.3;;;4.1;;
63690;SDS011;49837;57.280;27.070;2023-05-10T01:35:22;15.0;;;4.2;;
63690;SDS011;49837;57.280;27.070;2023-05-10T01:36:18;12.9;;;4.2;;
63690;SDS011;49837;57.280;27.070;2023-05-10T01:37:20;11.3;;;4.4;;
63690;SDS011;49837;57.280;27.070;2023-05-10T01:38:33;10.3;;;4.2;;
63690;SDS011;49837;57.280;27.070;2023-05-10T01:39:29;8.4;;;3.8;;
63690;SDS011;49837;57.280;27.070;2023-05-10T01:41:36;15.7;;;4.4;;
63690;SDS011;49837;57.280;27.070;2023-05-10T01:42:25;10.8;;;3.7;;
63690;SDS011;49837;57.280;27.070;2023-05-10T01:43:30;9.7;;;4.1;;
63690;SDS011;49837;57.280;27.070;2023-05-10T01:45:36;7.6;;;3.7;;
63690;SDS011;49837;57.280;27.070;2023-05-10T01:46:37;10.3;;;3.6;;
63690;SDS011;49837;57.280;27.070;2023-05-10T01:48:40;12.0;;;4.3;;
63690;SDS011;49837;57.280;27.070;2023-05-10T01:49:50;11.2;;;3.9;;
63690;SDS011;49837;57.280;27.070;2023-05-10T01:50:46;8.6;;;3.6;;
63690;SDS011;49837;57.280;27.070;2023-05-10T01:51:47;9.6;;;4.1;;
63690;SDS011;49837;57.280;27.070;2023-05-10T01:52:53;10.3;;;3.8;;
63690;SDS011;49837;57.280;27.070;2023-05-10T01:53:54;11.3;;;3.9;;
63690;SDS011;49837;57.280;27.070;2023-05-10T01:55:00;9.5;;;4.3;;
63690;SDS011;49837;57.280;27.070;2023-05-10T01:56:01;9.1;;;3.8;;
63690;SDS011;49837;57.280;27.070;2023-05-10T01:57:02;6.6;;;3.6;;
63690;SDS011;49837;57.280;27.070;2023-05-10T01:58:15;10.0;;;3.9;;
63690;SDS011;49837;57.280;27.070;2023-05-10T01:59:06;8.7;;;3.7;;
63690;SDS011;49837;57.280;27.070;2023-05-10T02:00:08;12.7;;;4.0;;
63690;SDS011;49837;57.280;27.070;2023-05-10T02:01:08;12.2;;;4.3;;
63690;SDS011;49837;57.280;27.070;2023-05-10T02:02:08;8.2;;;3.7;;
63690;SDS011;49837;57.280;27.070;2023-05-10T02:03:09;11.0;;;4.4;;
63690;SDS011;49837;57.280;27.070;2023-05-10T02:04:09;9.7;;;3.9;;
63690;SDS011;49837;57.280;27.070;2023-05-10T02:05:10;7.9;;;4.0;;
63690;SDS011;49837;57.280;27.070;2023-05-10T02:06:10;8.9;;;3.8;;
63690;SDS011;49837;57.280;27.070;2023-05-10T02:07:11;10.9;;;4.5;;
63690;SDS011;49837;57.280;27.070;2023-05-10T02:08:12;13.7;;;4.1;;
63690;SDS011;49837;57.280;27.070;2023-05-10T02:09:12;8.3;;;4.0;;
63690;SDS011;49837;57.280;27.070;2023-05-10T02:10:12;11.1;;;4.0;;
63690;SDS011;49837;57.280;27.070;2023-05-10T02:11:13;7.8;;;3.7;;
63690;SDS011;49837;57.280;27.070;2023-05-10T02:12:13;7.2;;;3.9;;
63690;SDS011;49837;57.280;27.070;2023-05-10T02:13:14;9.3;;;4.0;;
63690;SDS011;49837;57.280;27.070;2023-05-10T02:14:14;7.0;;;3.6;;
63690;SDS011;49837;57.280;27.070;2023-05-10T02:15:16;6.1;;;3.7;;
63690;SDS011;49837;57.280;27.070;2023-05-10T02:16:16;9.3;;;3.8;;
63690;SDS011;49837;57.280;27.070;2023-05-10T02:17:16;6.9;;;3.5;;
63690;SDS011;49837;57.280;27.070;2023-05-10T02:18:16;9.6;;;3.9;;
63690;SDS011;49837;57.280;27.070;2023-05-10T02:19:17;14.5;;;4.0;;
63690;SDS011;49837;57.280;27.070;2023-05-10T02:20:17;7.7;;;3.5;;
63690;SDS011;49837;57.280;27.070;2023-05-10T02:21:17;8.7;;;3.8;;
63690;SDS011;49837;57.280;27.070;2023-05-10T02:22:18;12.5;;;4.2;;
63690;SDS011;49837;57.280;27.070;2023-05-10T02:23:18;10.5;;;3.8;;
63690;SDS011;49837;57.280;27.070;2023-05-10T02:24:18;6.0;;;3.4;;
63690;SDS011;49837;57.280;27.070;2023-05-10T02:25:19;7.6;;;3.6;;
63690;SDS011;49837;57.280;27.070;2023-05-10T02:26:19;6.4;;;4.0;;
63690;SDS011;49837;57.280;27.070;2023-05-10T02:27:20;9.1;;;3.7;;
63690;SDS011;49837;57.280;27.070;2023-05-10T02:28:21;8.0;;;3.6;;
63690;SDS011;49837;57.280;27.070;2023-05-10T02:29:21;10.7;;;3.9;;
63690;SDS011;49837;57.280;27.070;2023-05-10T02:30:24;11.4;;;3.8;;
63690;SDS011;49837;57.280;27.070;2023-05-10T02:31:24;9.9;;;3.6;;
63690;SDS011;49837;57.280;27.070;2023-05-10T02:32:25;8.6;;;3.8;;
63690;SDS011;49837;57.280;27.070;2023-05-10T02:33:25;7.4;;;4.0;;
63690;SDS011;49837;57.280;27.070;2023-05-10T02:34:25;10.0;;;4.2;;
63690;SDS011;49837;57.280;27.070;2023-05-10T02:35:25;9.2;;;3.6;;
63690;SDS011;49837;57.280;27.070;2023-05-10T02:36:26;8.3;;;3.8;;
63690;SDS011;49837;57.280;27.070;2023-05-10T02:37:26;10.6;;;3.8;;
63690;SDS011;49837;57.280;27.070;2023-05-10T02:38:26;10.7;;;3.6;;
63690;SDS011;49837;57.280;27.070;2023-05-10T02:39:27;10.4;;;4.0;;
63690;SDS011;49837;57.280;27.070;2023-05-10T02:40:27;10.1;;;4.0;;
63690;SDS011;49837;57.280;27.070;2023-05-10T02:41:27;9.2;;;3.9;;
63690;SDS011;49837;57.280;27.070;2023-05-10T02:42:28;11.8;;;3.9;;
63690;SDS011;49837;57.280;27.070;2023-05-10T02:43:28;13.0;;;4.0;;
63690;SDS011;49837;57.280;27.070;2023-05-10T02:44:28;9.5;;;4.0;;
63690;SDS011;49837;57.280;27.070;2023-05-10T02:45:30;11.2;;;4.2;;
63690;SDS011;49837;57.280;27.070;2023-05-10T02:46:29;9.4;;;3.8;;
63690;SDS011;49837;57.280;27.070;2023-05-10T02:47:29;9.9;;;3.7;;
63690;SDS011;49837;57.280;27.070;2023-05-10T02:48:30;9.3;;;3.7;;
63690;SDS011;49837;57.280;27.070;2023-05-10T02:49:30;8.6;;;4.1;;
63690;SDS011;49837;57.280;27.070;2023-05-10T02:50:30;10.1;;;4.2;;
63690;SDS011;49837;57.280;27.070;2023-05-10T02:51:31;8.5;;;4.0;;
63690;SDS011;49837;57.280;27.070;2023-05-10T02:52:37;9.7;;;3.8;;
63690;SDS011;49837;57.280;27.070;2023-05-10T02:53:33;10.4;;;4.4;;
63690;SDS011;49837;57.280;27.070;2023-05-10T02:54:33;7.2;;;3.6;;
63690;SDS011;49837;57.280;27.070;2023-05-10T02:55:35;13.3;;;4.3;;
63690;SDS011;49837;57.280;27.070;2023-05-10T02:56:35;9.1;;;3.7;;
63690;SDS011;49837;57.280;27.070;2023-05-10T02:57:38;10.4;;;3.9;;
63690;SDS011;49837;57.280;27.070;2023-05-10T02:58:40;8.7;;;3.7;;
63690;SDS011;49837;57.280;27.070;2023-05-10T02:59:40;8.4;;;3.5;;
63690;SDS011;49837;57.280;27.070;2023-05-10T03:00:40;10.5;;;3.4;;
63690;SDS011;49837;57.280;27.070;2023-05-10T03:01:41;8.5;;;3.5;;
63690;SDS011;49837;57.280;27.070;2023-05-10T03:02:41;8.1;;;4.0;;
63690;SDS011;49837;57.280;27.070;2023-05-10T03:03:41;8.7;;;3.6;;
63690;SDS011;49837;57.280;27.070;2023-05-10T03:04:42;7.5;;;3.6;;
63690;SDS011;49837;57.280;27.070;2023-05-10T03:05:42;8.6;;;4.4;;
63690;SDS011;49837;57.280;27.070;2023-05-10T03:06:42;7.2;;;3.5;;
63690;SDS011;49837;57.280;27.070;2023-05-10T03:07:43;9.5;;;3.7;;
63690;SDS011;49837;57.280;27.070;2023-05-10T03:08:43;11.6;;;4.6;;
63690;SDS011;49837;57.280;27.070;2023-05-10T03:09:43;10.1;;;3.5;;
63690;SDS011;49837;57.280;27.070;2023-05-10T03:11:56;6.8;;;3.5;;
63690;SDS011;49837;57.280;27.070;2023-05-10T03:14:57;9.8;;;4.3;;
63690;SDS011;49837;57.280;27.070;2023-05-10T03:16:10;13.3;;;4.8;;
63690;SDS011;49837;57.280;27.070;2023-05-10T03:17:20;8.4;;;4.0;;
63690;SDS011;49837;57.280;27.070;2023-05-10T03:18:07;9.7;;;3.6;;
63690;SDS011;49837;57.280;27.070;2023-05-10T03:19:11;11.5;;;4.2;;
63690;SDS011;49837;57.280;27.070;2023-05-10T03:20:09;11.3;;;4.7;;
63690;SDS011;49837;57.280;27.070;2023-05-10T03:21:10;8.5;;;3.7;;
63690;SDS011;49837;57.280;27.070;2023-05-10T03:22:10;9.7;;;4.1;;
63690;SDS011;49837;57.280;27.070;2023-05-10T03:23:16;13.0;;;4.0;;
63690;SDS011;49837;57.280;27.070;2023-05-10T03:24:16;7.3;;;4.1;;
63690;SDS011;49837;57.280;27.070;2023-05-10T03:25:18;12.8;;;4.5;;
63690;SDS011;49837;57.280;27.070;2023-05-10T03:26:22;10.3;;;4.3;;
63690;SDS011;49837;57.280;27.070;2023-05-10T03:27:22;10.7;;;4.4;;
63690;SDS011;49837;57.280;27.070;2023-05-10T03:28:22;11.1;;;4.2;;
63690;SDS011;49837;57.280;27.070;2023-05-10T03:29:22;20.2;;;5.0;;
63690;SDS011;49837;57.280;27.070;2023-05-10T03:30:22;10.5;;;4.4;;
63690;SDS011;49837;57.280;27.070;2023-05-10T03:31:23;14.1;;;4.2;;
63690;SDS011;49837;57.280;27.070;2023-05-10T03:32:23;10.5;;;3.8;;
63690;SDS011;49837;57.280;27.070;2023-05-10T03:33:24;13.0;;;4.1;;
63690;SDS011;49837;57.280;27.070;2023-05-10T03:34:24;9.8;;;4.3;;
63690;SDS011;49837;57.280;27.070;2023-05-10T03:35:24;10.7;;;4.3;;
63690;SDS011;49837;57.280;27.070;2023-05-10T03:36:24;9.7;;;4.1;;
63690;SDS011;49837;57.280;27.070;2023-05-10T03:37:25;8.3;;;3.9;;
63690;SDS011;49837;57.280;27.070;2023-05-10T03:38:25;9.1;;;4.0;;
63690;SDS011;49837;57.280;27.070;2023-05-10T03:39:26;8.6;;;4.1;;
63690;SDS011;49837;57.280;27.070;2023-05-10T03:40:26;10.1;;;3.6;;
63690;SDS011;49837;57.280;27.070;2023-05-10T03:41:26;8.9;;;4.4;;
63690;SDS011;49837;57.280;27.070;2023-05-10T03:42:27;12.4;;;4.3;;
63690;SDS011;49837;57.280;27.070;2023-05-10T03:43:27;9.5;;;3.9;;
63690;SDS011;49837;57.280;27.070;2023-05-10T03:44:27;7.3;;;3.9;;
63690;SDS011;49837;57.280;27.070;2023-05-10T03:45:28;7.7;;;3.8;;
63690;SDS011;49837;57.280;27.070;2023-05-10T03:46:28;8.5;;;4.0;;
63690;SDS011;49837;57.280;27.070;2023-05-10T03:47:29;9.8;;;3.8;;
63690;SDS011;49837;57.280;27.070;2023-05-10T03:48:29;12.5;;;3.8;;
63690;SDS011;49837;57.280;27.070;2023-05-10T03:49:29;11.3;;;4.0;;
63690;SDS011;49837;57.280;27.070;2023-05-10T03:50:30;7.8;;;3.6;;
63690;SDS011;49837;57.280;27.070;2023-05-10T03:51:30;6.6;;;3.4;;
63690;SDS011;49837;57.280;27.070;2023-05-10T03:52:30;9.1;;;4.0;;
63690;SDS011;49837;57.280;27.070;2023-05-10T03:53:31;9.3;;;3.7;;
63690;SDS011;49837;57.280;27.070;2023-05-10T03:54:31;8.8;;;3.7;;
63690;SDS011;49837;57.280;27.070;2023-05-10T03:55:31;8.8;;;3.8;;
63690;SDS011;49837;57.280;27.070;2023-05-10T03:56:32;10.3;;;3.7;;
63690;SDS011;49837;57.280;27.070;2023-05-10T03:57:32;11.3;;;4.0;;
63690;SDS011;49837;57.280;27.070;2023-05-10T03:58:32;7.8;;;4.3;;
63690;SDS011;49837;57.280;27.070;2023-05-10T03:59:33;8.6;;;3.6;;
63690;SDS011;49837;57.280;27.070;2023-05-10T04:00:33;7.9;;;4.0;;
63690;SDS011;49837;57.280;27.070;2023-05-10T04:01:34;10.1;;;4.0;;
63690;SDS011;49837;57.280;27.070;2023-05-10T04:02:34;10.6;;;4.4;;
63690;SDS011;49837;57.280;27.070;2023-05-10T04:03:34;8.6;;;3.8;;
63690;SDS011;49837;57.280;27.070;2023-05-10T04:04:34;9.6;;;4.1;;
63690;SDS011;49837;57.280;27.070;2023-05-10T04:05:35;7.0;;;3.9;;
63690;SDS011;49837;57.280;27.070;2023-05-10T04:06:35;9.6;;;4.0;;
63690;SDS011;49837;57.280;27.070;2023-05-10T04:07:36;10.6;;;4.6;;
63690;SDS011;49837;57.280;27.070;2023-05-10T04:08:36;10.9;;;4.5;;
63690;SDS011;49837;57.280;27.070;2023-05-10T04:09:36;14.2;;;5.1;;
63690;SDS011;49837;57.280;27.070;2023-05-10T04:10:37;11.6;;;4.7;;
63690;SDS011;49837;57.280;27.070;2023-05-10T04:11:37;9.9;;;4.7;;
63690;SDS011;49837;57.280;27.070;2023-05-10T04:12:37;14.2;;;4.6;;
63690;SDS011;49837;57.280;27.070;2023-05-10T04:13:38;11.1;;;4.4;;
63690;SDS011;49837;57.280;27.070;2023-05-10T04:14:38;10.3;;;4.6;;
63690;SDS011;49837;57.280;27.070;2023-05-10T04:15:38;14.2;;;4.7;;
63690;SDS011;49837;57.280;27.070;2023-05-10T04:16:39;14.1;;;4.8;;
63690;SDS011;49837;57.280;27.070;2023-05-10T04:17:39;11.0;;;4.7;;
63690;SDS011;49837;57.280;27.070;2023-05-10T04:18:39;12.3;;;4.6;;
63690;SDS011;49837;57.280;27.070;2023-05-10T04:19:40;16.3;;;5.3;;
63690;SDS011;49837;57.280;27.070;2023-05-10T04:20:40;13.8;;;5.2;;
63690;SDS011;49837;57.280;27.070;2023-05-10T04:21:41;12.0;;;5.2;;
63690;SDS011;49837;57.280;27.070;2023-05-10T04:22:41;10.6;;;4.6;;
63690;SDS011;49837;57.280;27.070;2023-05-10T04:23:41;12.8;;;4.7;;
63690;SDS011;49837;57.280;27.070;2023-05-10T04:24:42;13.4;;;4.7;;
63690;SDS011;49837;57.280;27.070;2023-05-10T04:25:42;13.6;;;4.3;;
63690;SDS011;49837;57.280;27.070;2023-05-10T04:26:42;15.0;;;4.9;;
63690;SDS011;49837;57.280;27.070;2023-05-10T04:27:43;16.2;;;4.4;;
63690;SDS011;49837;57.280;27.070;2023-05-10T04:28:43;18.1;;;5.0;;
63690;SDS011;49837;57.280;27.070;2023-05-10T04:29:43;23.7;;;5.1;;
63690;SDS011;49837;57.280;27.070;2023-05-10T04:30:44;13.3;;;4.9;;
63690;SDS011;49837;57.280;27.070;2023-05-10T04:31:44;20.1;;;5.7;;
63690;SDS011;49837;57.280;27.070;2023-05-10T04:32:45;14.1;;;5.1;;
63690;SDS011;49837;57.280;27.070;2023-05-10T04:33:45;14.4;;;5.2;;
63690;SDS011;49837;57.280;27.070;2023-05-10T04:34:45;22.9;;;4.9;;
63690;SDS011;49837;57.280;27.070;2023-05-10T04:35:46;12.5;;;4.1;;
63690;SDS011;49837;57.280;27.070;2023-05-10T04:36:46;18.1;;;4.1;;
63690;SDS011;49837;57.280;27.070;2023-05-10T04:37:46;8.2;;;3.3;;
63690;SDS011;49837;57.280;27.070;2023-05-10T04:38:47;12.7;;;3.9;;
63690;SDS011;49837;57.280;27.070;2023-05-10T04:39:47;11.8;;;3.3;;
63690;SDS011;49837;57.280;27.070;2023-05-10T04:40:48;10.9;;;3.3;;
63690;SDS011;49837;57.280;27.070;2023-05-10T04:41:48;7.0;;;3.3;;
63690;SDS011;49837;57.280;27.070;2023-05-10T04:42:48;8.5;;;3.4;;
63690;SDS011;49837;57.280;27.070;2023-05-10T04:43:49;6.4;;;2.8;;
63690;SDS011;49837;57.280;27.070;2023-05-10T04:44:49;10.8;;;3.3;;
63690;SDS011;49837;57.280;27.070;2023-05-10T04:45:49;11.1;;;3.4;;
63690;SDS011;49837;57.280;27.070;2023-05-10T04:46:50;13.5;;;3.4;;
63690;SDS011;49837;57.280;27.070;2023-05-10T04:47:50;9.0;;;3.0;;
63690;SDS011;49837;57.280;27.070;2023-05-10T04:48:51;8.6;;;2.8;;
63690;SDS011;49837;57.280;27.070;2023-05-10T04:49:51;8.4;;;2.9;;
63690;SDS011;49837;57.280;27.070;2023-05-10T04:50:51;6.8;;;2.8;;
63690;SDS011;49837;57.280;27.070;2023-05-10T04:51:52;6.8;;;2.6;;
63690;SDS011;49837;57.280;27.070;2023-05-10T04:52:52;11.6;;;2.9;;
63690;SDS011;49837;57.280;27.070;2023-05-10T04:53:52;8.6;;;2.6;;
63690;SDS011;49837;57.280;27.070;2023-05-10T04:54:57;8.2;;;2.7;;
63690;SDS011;49837;57.280;27.070;2023-05-10T04:55:57;9.5;;;2.7;;
63690;SDS011;49837;57.280;27.070;2023-05-10T04:56:58;10.4;;;2.6;;
63690;SDS011;49837;57.280;27.070;2023-05-10T04:57:58;7.7;;;2.5;;
63690;SDS011;49837;57.280;27.070;2023-05-10T04:58:59;12.3;;;2.8;;
63690;SDS011;49837;57.280;27.070;2023-05-10T04:59:59;10.5;;;2.7;;
63690;SDS011;49837;57.280;27.070;2023-05-10T05:01:08;7.9;;;2.8;;
63690;SDS011;49837;57.280;27.070;2023-05-10T05:02:01;5.9;;;2.4;;
63690;SDS011;49837;57.280;27.070;2023-05-10T05:03:01;8.4;;;3.0;;
63690;SDS011;49837;57.280;27.070;2023-05-10T05:04:02;8.9;;;2.6;;
63690;SDS011;49837;57.280;27.070;2023-05-10T05:05:02;5.9;;;2.6;;
63690;SDS011;49837;57.280;27.070;2023-05-10T05:06:03;6.5;;;2.3;;
63690;SDS011;49837;57.280;27.070;2023-05-10T05:07:03;16.6;;;2.8;;
63690;SDS011;49837;57.280;27.070;2023-05-10T05:08:03;7.8;;;2.6;;
63690;SDS011;49837;57.280;27.070;2023-05-10T05:09:04;5.4;;;2.3;;
63690;SDS011;49837;57.280;27.070;2023-05-10T05:10:07;6.5;;;2.4;;
63690;SDS011;49837;57.280;27.070;2023-05-10T05:11:05;11.3;;;2.4;;
63690;SDS011;49837;57.280;27.070;2023-05-10T05:12:06;8.0;;;2.4;;
63690;SDS011;49837;57.280;27.070;2023-05-10T05:13:06;6.0;;;2.4;;
63690;SDS011;49837;57.280;27.070;2023-05-10T05:14:06;6.2;;;2.3;;
63690;SDS011;49837;57.280;27.070;2023-05-10T05:15:07;4.1;;;2.2;;
63690;SDS011;49837;57.280;27.070;2023-05-10T05:16:07;5.8;;;2.2;;
63690;SDS011;49837;57.280;27.070;2023-05-10T05:17:08;6.6;;;2.3;;
63690;SDS011;49837;57.280;27.070;2023-05-10T05:18:08;9.0;;;2.7;;
63690;SDS011;49837;57.280;27.070;2023-05-10T05:19:08;7.2;;;2.6;;
63690;SDS011;49837;57.280;27.070;2023-05-10T05:20:09;9.2;;;2.5;;
63690;SDS011;49837;57.280;27.070;2023-05-10T05:21:16;11.0;;;2.6;;
63690;SDS011;49837;57.280;27.070;2023-05-10T05:22:14;7.2;;;2.4;;
63690;SDS011;49837;57.280;27.070;2023-05-10T05:23:15;6.1;;;2.5;;
63690;SDS011;49837;57.280;27.070;2023-05-10T05:24:15;8.7;;;2.1;;
63690;SDS011;49837;57.280;27.070;2023-05-10T05:25:15;11.0;;;2.5;;
63690;SDS011;49837;57.280;27.070;2023-05-10T05:26:16;11.2;;;2.6;;
63690;SDS011;49837;57.280;27.070;2023-05-10T05:27:16;12.0;;;2.3;;
63690;SDS011;49837;57.280;27.070;2023-05-10T05:28:17;10.2;;;2.3;;
63690;SDS011;49837;57.280;27.070;2023-05-10T05:29:17;9.6;;;2.6;;
63690;SDS011;49837;57.280;27.070;2023-05-10T05:30:17;11.7;;;2.3;;
63690;SDS011;49837;57.280;27.070;2023-05-10T05:31:18;7.2;;;2.2;;
63690;SDS011;49837;57.280;27.070;2023-05-10T05:32:18;6.0;;;2.1;;
63690;SDS011;49837;57.280;27.070;2023-05-10T05:33:19;6.6;;;2.4;;
63690;SDS011;49837;57.280;27.070;2023-05-10T05:34:19;10.0;;;2.5;;
63690;SDS011;49837;57.280;27.070;2023-05-10T05:35:19;10.5;;;2.7;;
63690;SDS011;49837;57.280;27.070;2023-05-10T05:36:20;8.0;;;2.4;;
63690;SDS011;49837;57.280;27.070;2023-05-10T05:37:20;6.3;;;2.2;;
63690;SDS011;49837;57.280;27.070;2023-05-10T05:38:21;7.4;;;2.4;;
63690;SDS011;49837;57.280;27.070;2023-05-10T05:39:21;8.5;;;2.5;;
63690;SDS011;49837;57.280;27.070;2023-05-10T05:40:21;9.6;;;2.5;;
63690;SDS011;49837;57.280;27.070;2023-05-10T05:41:22;8.3;;;2.5;;
63690;SDS011;49837;57.280;27.070;2023-05-10T05:42:22;5.9;;;2.5;;
63690;SDS011;49837;57.280;27.070;2023-05-10T05:43:23;10.9;;;2.7;;
63690;SDS011;49837;57.280;27.070;2023-05-10T05:44:23;6.5;;;2.7;;
63690;SDS011;49837;57.280;27.070;2023-05-10T05:45:23;8.3;;;2.5;;
63690;SDS011;49837;57.280;27.070;2023-05-10T05:46:24;9.3;;;2.1;;
63690;SDS011;49837;57.280;27.070;2023-05-10T05:47:24;8.0;;;2.6;;
63690;SDS011;49837;57.280;27.070;2023-05-10T05:48:25;4.1;;;2.4;;
63690;SDS011;49837;57.280;27.070;2023-05-10T05:49:25;6.6;;;2.4;;
63690;SDS011;49837;57.280;27.070;2023-05-10T05:50:26;7.4;;;2.4;;
63690;SDS011;49837;57.280;27.070;2023-05-10T05:51:26;9.6;;;2.5;;
63690;SDS011;49837;57.280;27.070;2023-05-10T05:52:26;4.2;;;2.4;;
63690;SDS011;49837;57.280;27.070;2023-05-10T05:53:27;9.6;;;2.4;;
63690;SDS011;49837;57.280;27.070;2023-05-10T05:54:27;7.0;;;2.4;;
63690;SDS011;49837;57.280;27.070;2023-05-10T05:55:28;5.6;;;2.4;;
63690;SDS011;49837;57.280;27.070;2023-05-10T05:56:28;8.0;;;2.3;;
63690;SDS011;49837;57.280;27.070;2023-05-10T05:57:29;8.9;;;2.2;;
63690;SDS011;49837;57.280;27.070;2023-05-10T05:58:29;6.4;;;2.0;;
63690;SDS011;49837;57.280;27.070;2023-05-10T05:59:29;5.0;;;2.3;;
63690;SDS011;49837;57.280;27.070;2023-05-10T06:00:30;5.0;;;2.2;;
63690;SDS011;49837;57.280;27.070;2023-05-10T06:01:30;6.9;;;2.3;;
63690;SDS011;49837;57.280;27.070;2023-05-10T06:02:31;6.3;;;2.2;;
63690;SDS011;49837;57.280;27.070;2023-05-10T06:03:31;7.3;;;2.1;;
63690;SDS011;49837;57.280;27.070;2023-05-10T06:04:31;5.4;;;2.5;;
63690;SDS011;49837;57.280;27.070;2023-05-10T06:05:32;4.7;;;2.3;;
63690;SDS011;49837;57.280;27.070;2023-05-10T06:06:33;4.9;;;2.2;;
63690;SDS011;49837;57.280;27.070;2023-05-10T06:07:33;7.9;;;2.5;;
63690;SDS011;49837;57.280;27.070;2023-05-10T06:08:34;8.2;;;2.3;;
63690;SDS011;49837;57.280;27.070;2023-05-10T06:09:34;7.8;;;2.3;;
63690;SDS011;49837;57.280;27.070;2023-05-10T06:10:35;6.4;;;2.5;;
63690;SDS011;49837;57.280;27.070;2023-05-10T06:11:35;5.4;;;2.3;;
63690;SDS011;49837;57.280;27.070;2023-05-10T06:12:36;5.0;;;2.2;;
63690;SDS011;49837;57.280;27.070;2023-05-10T06:13:36;4.2;;;2.2;;
63690;SDS011;49837;57.280;27.070;2023-05-10T06:14:36;7.0;;;2.3;;
63690;SDS011;49837;57.280;27.070;2023-05-10T06:15:37;5.1;;;2.4;;
63690;SDS011;49837;57.280;27.070;2023-05-10T06:16:37;7.0;;;2.1;;
63690;SDS011;49837;57.280;27.070;2023-05-10T06:17:38;7.3;;;2.4;;
63690;SDS011;49837;57.280;27.070;2023-05-10T06:18:38;5.0;;;2.2;;
63690;SDS011;49837;57.280;27.070;2023-05-10T06:19:38;7.4;;;2.5;;
63690;SDS011;49837;57.280;27.070;2023-05-10T06:20:40;5.0;;;2.3;;